sensor_id;sensor_type;location;lat;lon;timestamp;P1;durP1;ratioP1;P2;durP2;ratioP2
18883;SDS011;9574;47.282;9.640;2023-07-29T00:01:57;2.60;;;1.55;;
18883;SDS011;9574;47.282;9.640;2023-07-29T00:04:24;1.88;;;1.50;;
18883;SDS011;9574;47.282;9.640;2023-07-29T00:06:51;2.47;;;1.60;;
18883;SDS011;9574;47.282;9.640;2023-07-29T00:09:18;2.47;;;1.90;;
18883;SDS011;9574;47.282;9.640;2023-07-29T00:11:47;2.35;;;1.40;;
18883;SDS011;9574;47.282;9.640;2023-07-29T00:14:13;3.13;;;1.80;;
18883;SDS011;9574;47.282;9.640;2023-07-29T00:16:40;2.30;;;1.60;;
18883;SDS011;9574;47.282;9.640;2023-07-29T00:19:08;2.70;;;1.75;;
18883;SDS011;9574;47.282;9.640;2023-07-29T00:21:35;2.13;;;1.80;;
18883;SDS011;9574;47.282;9.640;2023-07-29T00:24:02;1.73;;;1.58;;
18883;SDS011;9574;47.282;9.640;2023-07-29T00:26:29;3.25;;;1.63;;
18883;SDS011;9574;47.282;9.640;2023-07-29T00:28:58;2.47;;;1.92;;
18883;SDS011;9574;47.282;9.640;2023-07-29T00:31:25;2.25;;;1.38;;
18883;SDS011;9574;47.282;9.640;2023-07-29T00:33:52;3.13;;;1.80;;
18883;SDS011;9574;47.282;9.640;2023-07-29T00:36:19;2.40;;;1.50;;
18883;SDS011;9574;47.282;9.640;2023-07-29T00:38:46;3.08;;;1.90;;
18883;SDS011;9574;47.282;9.640;2023-07-29T00:41:13;2.28;;;1.50;;
18883;SDS011;9574;47.282;9.640;2023-07-29T00:43:41;2.03;;;1.58;;
18883;SDS011;9574;47.282;9.640;2023-07-29T00:46:09;3.75;;;1.55;;
18883;SDS011;9574;47.282;9.640;2023-07-29T00:48:38;2.05;;;1.50;;
18883;SDS011;9574;47.282;9.640;2023-07-29T00:51:05;3.00;;;1.67;;
18883;SDS011;9574;47.282;9.640;2023-07-29T00:53:32;3.05;;;1.63;;
18883;SDS011;9574;47.282;9.640;2023-07-29T00:55:59;2.90;;;1.83;;
18883;SDS011;9574;47.282;9.640;2023-07-29T00:58:26;3.30;;;1.95;;
18883;SDS011;9574;47.282;9.640;2023-07-29T01:00:54;2.75;;;1.80;;
18883;SDS011;9574;47.282;9.640;2023-07-29T01:03:23;1.98;;;1.58;;
18883;SDS011;9574;47.282;9.640;2023-07-29T01:05:54;3.40;;;1.83;;
18883;SDS011;9574;47.282;9.640;2023-07-29T01:08:37;2.10;;;1.70;;
18883;SDS011;9574;47.282;9.640;2023-07-29T01:11:13;3.20;;;1.92;;
18883;SDS011;9574;47.282;9.640;2023-07-29T01:13:55;3.08;;;1.75;;
18883;SDS011;9574;47.282;9.640;2023-07-29T01:16:29;2.90;;;1.80;;
18883;SDS011;9574;47.282;9.640;2023-07-29T01:19:04;2.58;;;1.90;;
18883;SDS011;9574;47.282;9.640;2023-07-29T01:21:33;2.95;;;1.73;;
18883;SDS011;9574;47.282;9.640;2023-07-29T01:24:03;2.35;;;1.77;;
18883;SDS011;9574;47.282;9.640;2023-07-29T01:26:30;2.95;;;1.83;;
18883;SDS011;9574;47.282;9.640;2023-07-29T01:28:57;2.22;;;1.65;;
18883;SDS011;9574;47.282;9.640;2023-07-29T01:31:27;2.78;;;1.83;;
18883;SDS011;9574;47.282;9.640;2023-07-29T01:34:01;3.28;;;1.73;;
18883;SDS011;9574;47.282;9.640;2023-07-29T01:36:36;6.43;;;1.67;;
18883;SDS011;9574;47.282;9.640;2023-07-29T01:39:07;2.53;;;1.73;;
18883;SDS011;9574;47.282;9.640;2023-07-29T01:41:36;2.72;;;1.80;;
18883;SDS011;9574;47.282;9.640;2023-07-29T01:44:04;2.63;;;2.00;;
18883;SDS011;9574;47.282;9.640;2023-07-29T01:46:33;2.45;;;1.77;;
18883;SDS011;9574;47.282;9.640;2023-07-29T01:49:00;2.50;;;1.67;;
18883;SDS011;9574;47.282;9.640;2023-07-29T01:51:27;3.20;;;2.08;;
18883;SDS011;9574;47.282;9.640;2023-07-29T01:53:54;4.65;;;2.05;;
18883;SDS011;9574;47.282;9.640;2023-07-29T01:56:23;2.97;;;1.90;;
18883;SDS011;9574;47.282;9.640;2023-07-29T01:58:50;3.50;;;1.98;;
18883;SDS011;9574;47.282;9.640;2023-07-29T02:01:17;4.57;;;2.00;;
18883;SDS011;9574;47.282;9.640;2023-07-29T02:03:44;2.60;;;1.80;;
18883;SDS011;9574;47.282;9.640;2023-07-29T02:06:11;4.45;;;1.80;;
18883;SDS011;9574;47.282;9.640;2023-07-29T02:08:38;3.15;;;2.20;;
18883;SDS011;9574;47.282;9.640;2023-07-29T02:11:06;2.70;;;1.80;;
18883;SDS011;9574;47.282;9.640;2023-07-29T02:13:34;3.00;;;1.85;;
18883;SDS011;9574;47.282;9.640;2023-07-29T02:16:01;3.03;;;2.05;;
18883;SDS011;9574;47.282;9.640;2023-07-29T02:18:28;3.20;;;2.20;;
18883;SDS011;9574;47.282;9.640;2023-07-29T02:20:55;3.47;;;1.95;;
18883;SDS011;9574;47.282;9.640;2023-07-29T02:23:22;3.45;;;1.90;;
18883;SDS011;9574;47.282;9.640;2023-07-29T02:25:49;2.80;;;1.90;;
18883;SDS011;9574;47.282;9.640;2023-07-29T02:28:16;2.50;;;1.50;;
18883;SDS011;9574;47.282;9.640;2023-07-29T02:30:45;2.95;;;1.70;;
18883;SDS011;9574;47.282;9.640;2023-07-29T02:33:14;5.05;;;2.05;;
18883;SDS011;9574;47.282;9.640;2023-07-29T02:35:41;3.92;;;2.40;;
18883;SDS011;9574;47.282;9.640;2023-07-29T02:38:08;2.97;;;1.83;;
18883;SDS011;9574;47.282;9.640;2023-07-29T02:40:35;2.83;;;1.83;;
18883;SDS011;9574;47.282;9.640;2023-07-29T02:43:02;4.18;;;1.92;;
18883;SDS011;9574;47.282;9.640;2023-07-29T02:45:29;2.78;;;2.10;;
18883;SDS011;9574;47.282;9.640;2023-07-29T02:47:57;3.75;;;2.15;;
18883;SDS011;9574;47.282;9.640;2023-07-29T02:50:24;2.80;;;1.80;;
18883;SDS011;9574;47.282;9.640;2023-07-29T02:52:51;3.08;;;2.10;;
18883;SDS011;9574;47.282;9.640;2023-07-29T02:55:18;3.08;;;1.90;;
18883;SDS011;9574;47.282;9.640;2023-07-29T02:57:45;3.40;;;2.00;;
18883;SDS011;9574;47.282;9.640;2023-07-29T03:00:12;2.97;;;2.10;;
18883;SDS011;9574;47.282;9.640;2023-07-29T03:02:40;3.20;;;1.88;;
18883;SDS011;9574;47.282;9.640;2023-07-29T03:05:09;2.72;;;2.17;;
18883;SDS011;9574;47.282;9.640;2023-07-29T03:07:36;2.88;;;1.85;;
18883;SDS011;9574;47.282;9.640;2023-07-29T03:10:03;3.42;;;2.17;;
18883;SDS011;9574;47.282;9.640;2023-07-29T03:12:30;2.90;;;1.92;;
18883;SDS011;9574;47.282;9.640;2023-07-29T03:14:57;3.10;;;2.05;;
18883;SDS011;9574;47.282;9.640;2023-07-29T03:17:25;2.97;;;1.90;;
18883;SDS011;9574;47.282;9.640;2023-07-29T03:19:53;4.68;;;2.17;;
18883;SDS011;9574;47.282;9.640;2023-07-29T03:22:21;3.15;;;2.20;;
18883;SDS011;9574;47.282;9.640;2023-07-29T03:24:48;3.10;;;2.20;;
18883;SDS011;9574;47.282;9.640;2023-07-29T03:27:15;3.30;;;2.45;;
18883;SDS011;9574;47.282;9.640;2023-07-29T03:29:42;3.05;;;2.00;;
18883;SDS011;9574;47.282;9.640;2023-07-29T03:32:09;3.72;;;2.47;;
18883;SDS011;9574;47.282;9.640;2023-07-29T03:34:37;3.17;;;2.22;;
18883;SDS011;9574;47.282;9.640;2023-07-29T03:37:05;3.10;;;2.20;;
18883;SDS011;9574;47.282;9.640;2023-07-29T03:39:33;2.80;;;2.03;;
18883;SDS011;9574;47.282;9.640;2023-07-29T03:42:00;6.15;;;2.28;;
18883;SDS011;9574;47.282;9.640;2023-07-29T03:44:28;3.47;;;2.42;;
18883;SDS011;9574;47.282;9.640;2023-07-29T03:46:56;5.15;;;2.60;;
18883;SDS011;9574;47.282;9.640;2023-07-29T03:49:23;3.17;;;2.20;;
18883;SDS011;9574;47.282;9.640;2023-07-29T03:51:50;3.60;;;2.47;;
18883;SDS011;9574;47.282;9.640;2023-07-29T03:54:17;4.93;;;2.25;;
18883;SDS011;9574;47.282;9.640;2023-07-29T03:56:45;3.28;;;1.98;;
18883;SDS011;9574;47.282;9.640;2023-07-29T03:59:12;4.28;;;2.42;;
18883;SDS011;9574;47.282;9.640;2023-07-29T04:01:39;4.85;;;2.22;;
18883;SDS011;9574;47.282;9.640;2023-07-29T04:04:06;5.47;;;2.70;;
18883;SDS011;9574;47.282;9.640;2023-07-29T04:06:33;2.70;;;2.10;;
18883;SDS011;9574;47.282;9.640;2023-07-29T04:09:00;3.67;;;2.38;;
18883;SDS011;9574;47.282;9.640;2023-07-29T04:11:27;3.28;;;2.38;;
18883;SDS011;9574;47.282;9.640;2023-07-29T04:13:55;3.67;;;2.67;;
18883;SDS011;9574;47.282;9.640;2023-07-29T04:16:22;3.95;;;2.65;;
18883;SDS011;9574;47.282;9.640;2023-07-29T04:18:49;3.55;;;2.55;;
18883;SDS011;9574;47.282;9.640;2023-07-29T04:21:16;4.35;;;3.17;;
18883;SDS011;9574;47.282;9.640;2023-07-29T04:23:43;4.47;;;2.97;;
18883;SDS011;9574;47.282;9.640;2023-07-29T04:26:10;4.72;;;2.90;;
18883;SDS011;9574;47.282;9.640;2023-07-29T04:28:37;5.22;;;2.90;;
18883;SDS011;9574;47.282;9.640;2023-07-29T04:31:06;3.40;;;2.50;;
18883;SDS011;9574;47.282;9.640;2023-07-29T04:33:32;3.67;;;2.75;;
18883;SDS011;9574;47.282;9.640;2023-07-29T04:36:00;4.13;;;2.67;;
18883;SDS011;9574;47.282;9.640;2023-07-29T04:38:31;3.70;;;2.75;;
18883;SDS011;9574;47.282;9.640;2023-07-29T04:40:59;5.53;;;2.65;;
18883;SDS011;9574;47.282;9.640;2023-07-29T04:43:27;4.80;;;2.40;;
18883;SDS011;9574;47.282;9.640;2023-07-29T04:45:54;3.38;;;2.50;;
18883;SDS011;9574;47.282;9.640;2023-07-29T04:48:23;5.28;;;2.92;;
18883;SDS011;9574;47.282;9.640;2023-07-29T04:50:50;4.72;;;2.25;;
18883;SDS011;9574;47.282;9.640;2023-07-29T04:53:17;3.35;;;2.40;;
18883;SDS011;9574;47.282;9.640;2023-07-29T04:55:44;4.38;;;3.05;;
18883;SDS011;9574;47.282;9.640;2023-07-29T04:58:11;4.72;;;2.88;;
18883;SDS011;9574;47.282;9.640;2023-07-29T05:00:37;3.75;;;2.60;;
18883;SDS011;9574;47.282;9.640;2023-07-29T05:03:04;4.82;;;2.65;;
18883;SDS011;9574;47.282;9.640;2023-07-29T05:05:33;4.60;;;2.75;;
18883;SDS011;9574;47.282;9.640;2023-07-29T05:08:00;7.22;;;2.90;;
18883;SDS011;9574;47.282;9.640;2023-07-29T05:10:27;6.95;;;2.95;;
18883;SDS011;9574;47.282;9.640;2023-07-29T05:12:54;3.83;;;2.67;;
18883;SDS011;9574;47.282;9.640;2023-07-29T05:15:21;5.78;;;2.75;;
18883;SDS011;9574;47.282;9.640;2023-07-29T05:17:48;6.03;;;3.22;;
18883;SDS011;9574;47.282;9.640;2023-07-29T05:20:15;3.05;;;2.70;;
18883;SDS011;9574;47.282;9.640;2023-07-29T05:22:43;3.33;;;2.70;;
18883;SDS011;9574;47.282;9.640;2023-07-29T05:25:10;4.45;;;2.90;;
18883;SDS011;9574;47.282;9.640;2023-07-29T05:27:37;4.80;;;3.00;;
18883;SDS011;9574;47.282;9.640;2023-07-29T05:30:05;3.35;;;2.65;;
18883;SDS011;9574;47.282;9.640;2023-07-29T05:32:32;5.03;;;2.90;;
18883;SDS011;9574;47.282;9.640;2023-07-29T05:34:59;4.00;;;2.55;;
18883;SDS011;9574;47.282;9.640;2023-07-29T05:37:26;4.13;;;2.65;;
18883;SDS011;9574;47.282;9.640;2023-07-29T05:39:55;3.30;;;2.38;;
18883;SDS011;9574;47.282;9.640;2023-07-29T05:42:22;4.55;;;2.90;;
18883;SDS011;9574;47.282;9.640;2023-07-29T05:44:49;4.60;;;2.60;;
18883;SDS011;9574;47.282;9.640;2023-07-29T05:47:16;3.03;;;2.40;;
18883;SDS011;9574;47.282;9.640;2023-07-29T05:49:42;4.38;;;2.72;;
18883;SDS011;9574;47.282;9.640;2023-07-29T05:52:09;6.80;;;2.70;;
18883;SDS011;9574;47.282;9.640;2023-07-29T05:54:36;4.07;;;2.70;;
18883;SDS011;9574;47.282;9.640;2023-07-29T05:57:05;4.35;;;2.70;;
18883;SDS011;9574;47.282;9.640;2023-07-29T05:59:32;4.40;;;2.78;;
18883;SDS011;9574;47.282;9.640;2023-07-29T06:01:59;4.13;;;2.80;;
18883;SDS011;9574;47.282;9.640;2023-07-29T06:04:26;3.05;;;2.28;;
18883;SDS011;9574;47.282;9.640;2023-07-29T06:06:53;3.70;;;2.42;;
18883;SDS011;9574;47.282;9.640;2023-07-29T06:09:21;4.05;;;2.55;;
18883;SDS011;9574;47.282;9.640;2023-07-29T06:11:48;6.93;;;2.90;;
18883;SDS011;9574;47.282;9.640;2023-07-29T06:14:16;6.80;;;2.30;;
18883;SDS011;9574;47.282;9.640;2023-07-29T06:16:43;3.25;;;2.65;;
18883;SDS011;9574;47.282;9.640;2023-07-29T06:19:10;4.20;;;2.58;;
18883;SDS011;9574;47.282;9.640;2023-07-29T06:21:38;4.35;;;2.42;;
18883;SDS011;9574;47.282;9.640;2023-07-29T06:24:05;4.22;;;2.60;;
18883;SDS011;9574;47.282;9.640;2023-07-29T06:26:32;5.20;;;3.22;;
18883;SDS011;9574;47.282;9.640;2023-07-29T06:28:59;3.83;;;2.35;;
18883;SDS011;9574;47.282;9.640;2023-07-29T06:31:27;4.00;;;2.70;;
18883;SDS011;9574;47.282;9.640;2023-07-29T06:33:54;4.53;;;2.80;;
18883;SDS011;9574;47.282;9.640;2023-07-29T06:36:21;4.72;;;2.42;;
18883;SDS011;9574;47.282;9.640;2023-07-29T06:38:48;4.38;;;2.78;;
18883;SDS011;9574;47.282;9.640;2023-07-29T06:41:15;10.10;;;3.10;;
18883;SDS011;9574;47.282;9.640;2023-07-29T06:43:42;4.72;;;2.90;;
18883;SDS011;9574;47.282;9.640;2023-07-29T06:46:09;4.15;;;2.63;;
18883;SDS011;9574;47.282;9.640;2023-07-29T06:48:37;5.10;;;2.80;;
18883;SDS011;9574;47.282;9.640;2023-07-29T06:51:04;4.63;;;3.15;;
18883;SDS011;9574;47.282;9.640;2023-07-29T06:53:31;5.38;;;3.40;;
18883;SDS011;9574;47.282;9.640;2023-07-29T06:55:58;5.30;;;3.00;;
18883;SDS011;9574;47.282;9.640;2023-07-29T06:58:25;4.93;;;2.75;;
18883;SDS011;9574;47.282;9.640;2023-07-29T07:00:52;3.33;;;2.75;;
18883;SDS011;9574;47.282;9.640;2023-07-29T07:03:19;4.78;;;3.15;;
18883;SDS011;9574;47.282;9.640;2023-07-29T07:05:48;4.82;;;2.70;;
18883;SDS011;9574;47.282;9.640;2023-07-29T07:08:15;4.25;;;2.75;;
18883;SDS011;9574;47.282;9.640;2023-07-29T07:10:42;5.35;;;3.03;;
18883;SDS011;9574;47.282;9.640;2023-07-29T07:13:09;3.58;;;2.70;;
18883;SDS011;9574;47.282;9.640;2023-07-29T07:15:36;5.07;;;3.03;;
18883;SDS011;9574;47.282;9.640;2023-07-29T07:18:03;4.43;;;2.75;;
18883;SDS011;9574;47.282;9.640;2023-07-29T07:20:30;5.10;;;2.47;;
18883;SDS011;9574;47.282;9.640;2023-07-29T07:22:59;3.80;;;2.53;;
18883;SDS011;9574;47.282;9.640;2023-07-29T07:25:26;4.85;;;2.70;;
18883;SDS011;9574;47.282;9.640;2023-07-29T07:27:53;4.05;;;2.60;;
18883;SDS011;9574;47.282;9.640;2023-07-29T07:30:20;3.90;;;2.50;;
18883;SDS011;9574;47.282;9.640;2023-07-29T07:32:46;5.63;;;2.80;;
18883;SDS011;9574;47.282;9.640;2023-07-29T07:35:15;3.42;;;2.60;;
18883;SDS011;9574;47.282;9.640;2023-07-29T07:37:42;6.32;;;2.70;;
18883;SDS011;9574;47.282;9.640;2023-07-29T07:40:10;4.25;;;2.70;;
18883;SDS011;9574;47.282;9.640;2023-07-29T07:42:38;4.50;;;2.90;;
18883;SDS011;9574;47.282;9.640;2023-07-29T07:45:05;3.90;;;2.95;;
18883;SDS011;9574;47.282;9.640;2023-07-29T07:47:32;5.95;;;2.50;;
18883;SDS011;9574;47.282;9.640;2023-07-29T07:49:59;2.92;;;2.30;;
18883;SDS011;9574;47.282;9.640;2023-07-29T07:52:26;3.63;;;2.45;;
18883;SDS011;9574;47.282;9.640;2023-07-29T07:54:54;6.68;;;2.97;;
18883;SDS011;9574;47.282;9.640;2023-07-29T07:57:23;4.43;;;2.83;;
18883;SDS011;9574;47.282;9.640;2023-07-29T07:59:50;4.03;;;2.97;;
18883;SDS011;9574;47.282;9.640;2023-07-29T08:02:17;4.47;;;2.78;;
18883;SDS011;9574;47.282;9.640;2023-07-29T08:04:45;4.88;;;2.92;;
18883;SDS011;9574;47.282;9.640;2023-07-29T08:07:12;4.30;;;2.67;;
18883;SDS011;9574;47.282;9.640;2023-07-29T08:09:39;3.83;;;2.60;;
18883;SDS011;9574;47.282;9.640;2023-07-29T08:12:06;4.88;;;2.92;;
18883;SDS011;9574;47.282;9.640;2023-07-29T08:14:35;5.35;;;2.75;;
18883;SDS011;9574;47.282;9.640;2023-07-29T08:17:02;3.90;;;2.65;;
18883;SDS011;9574;47.282;9.640;2023-07-29T08:19:29;4.03;;;2.72;;
18883;SDS011;9574;47.282;9.640;2023-07-29T08:24:23;3.83;;;2.38;;
18883;SDS011;9574;47.282;9.640;2023-07-29T08:26:50;3.92;;;2.63;;
18883;SDS011;9574;47.282;9.640;2023-07-29T08:29:17;3.85;;;2.42;;
18883;SDS011;9574;47.282;9.640;2023-07-29T08:31:45;5.55;;;3.10;;
18883;SDS011;9574;47.282;9.640;2023-07-29T08:34:12;6.53;;;2.67;;
18883;SDS011;9574;47.282;9.640;2023-07-29T08:36:39;4.47;;;2.60;;
18883;SDS011;9574;47.282;9.640;2023-07-29T08:39:06;4.35;;;2.40;;
18883;SDS011;9574;47.282;9.640;2023-07-29T08:41:35;4.20;;;2.75;;
18883;SDS011;9574;47.282;9.640;2023-07-29T08:44:08;3.88;;;2.55;;
18883;SDS011;9574;47.282;9.640;2023-07-29T08:46:39;4.18;;;2.92;;
18883;SDS011;9574;47.282;9.640;2023-07-29T08:49:07;5.40;;;2.50;;
18883;SDS011;9574;47.282;9.640;2023-07-29T08:51:38;4.47;;;2.78;;
18883;SDS011;9574;47.282;9.640;2023-07-29T08:54:08;3.85;;;2.60;;
18883;SDS011;9574;47.282;9.640;2023-07-29T08:56:36;5.25;;;2.35;;
18883;SDS011;9574;47.282;9.640;2023-07-29T08:59:04;4.07;;;2.78;;
18883;SDS011;9574;47.282;9.640;2023-07-29T09:01:31;4.20;;;2.50;;
18883;SDS011;9574;47.282;9.640;2023-07-29T09:03:58;3.25;;;2.20;;
18883;SDS011;9574;47.282;9.640;2023-07-29T09:06:27;5.22;;;2.78;;
18883;SDS011;9574;47.282;9.640;2023-07-29T09:08:54;3.88;;;2.55;;
18883;SDS011;9574;47.282;9.640;2023-07-29T09:11:22;3.92;;;2.58;;
18883;SDS011;9574;47.282;9.640;2023-07-29T09:13:49;4.05;;;3.10;;
18883;SDS011;9574;47.282;9.640;2023-07-29T09:16:16;3.42;;;2.25;;
18883;SDS011;9574;47.282;9.640;2023-07-29T09:18:43;4.75;;;2.63;;
18883;SDS011;9574;47.282;9.640;2023-07-29T09:21:10;4.43;;;2.42;;
18883;SDS011;9574;47.282;9.640;2023-07-29T09:23:41;5.13;;;2.92;;
18883;SDS011;9574;47.282;9.640;2023-07-29T09:26:09;4.45;;;2.72;;
18883;SDS011;9574;47.282;9.640;2023-07-29T09:28:37;4.13;;;3.08;;
18883;SDS011;9574;47.282;9.640;2023-07-29T09:31:05;4.93;;;2.83;;
18883;SDS011;9574;47.282;9.640;2023-07-29T09:33:33;4.38;;;2.80;;
18883;SDS011;9574;47.282;9.640;2023-07-29T09:36:02;6.10;;;2.65;;
18883;SDS011;9574;47.282;9.640;2023-07-29T09:38:29;3.42;;;2.35;;
18883;SDS011;9574;47.282;9.640;2023-07-29T09:40:58;5.90;;;3.03;;
18883;SDS011;9574;47.282;9.640;2023-07-29T09:43:25;4.38;;;2.63;;
18883;SDS011;9574;47.282;9.640;2023-07-29T09:45:55;3.55;;;2.60;;
18883;SDS011;9574;47.282;9.640;2023-07-29T09:48:25;7.72;;;2.67;;
18883;SDS011;9574;47.282;9.640;2023-07-29T09:50:53;4.38;;;3.08;;
18883;SDS011;9574;47.282;9.640;2023-07-29T09:53:20;3.88;;;2.60;;
18883;SDS011;9574;47.282;9.640;2023-07-29T09:55:48;3.50;;;2.60;;
18883;SDS011;9574;47.282;9.640;2023-07-29T09:58:17;3.63;;;2.60;;
18883;SDS011;9574;47.282;9.640;2023-07-29T10:00:51;5.05;;;2.95;;
18883;SDS011;9574;47.282;9.640;2023-07-29T10:03:18;4.15;;;2.78;;
18883;SDS011;9574;47.282;9.640;2023-07-29T10:05:47;4.57;;;3.08;;
18883;SDS011;9574;47.282;9.640;2023-07-29T10:08:15;4.57;;;2.92;;
18883;SDS011;9574;47.282;9.640;2023-07-29T10:10:44;6.20;;;3.10;;
18883;SDS011;9574;47.282;9.640;2023-07-29T10:13:11;4.82;;;2.70;;
18883;SDS011;9574;47.282;9.640;2023-07-29T10:15:40;5.25;;;3.08;;
18883;SDS011;9574;47.282;9.640;2023-07-29T10:18:08;3.65;;;2.70;;
18883;SDS011;9574;47.282;9.640;2023-07-29T10:20:35;4.00;;;2.95;;
18883;SDS011;9574;47.282;9.640;2023-07-29T10:23:02;4.38;;;3.08;;
18883;SDS011;9574;47.282;9.640;2023-07-29T10:25:35;6.22;;;3.17;;
18883;SDS011;9574;47.282;9.640;2023-07-29T10:28:05;3.63;;;2.70;;
18883;SDS011;9574;47.282;9.640;2023-07-29T10:30:33;5.50;;;3.10;;
18883;SDS011;9574;47.282;9.640;2023-07-29T10:33:03;4.38;;;2.75;;
18883;SDS011;9574;47.282;9.640;2023-07-29T10:35:32;3.88;;;2.67;;
18883;SDS011;9574;47.282;9.640;2023-07-29T10:37:59;3.67;;;3.00;;
18883;SDS011;9574;47.282;9.640;2023-07-29T10:40:38;4.38;;;3.10;;
18883;SDS011;9574;47.282;9.640;2023-07-29T10:43:10;4.40;;;2.78;;
18883;SDS011;9574;47.282;9.640;2023-07-29T10:45:40;4.55;;;3.13;;
18883;SDS011;9574;47.282;9.640;2023-07-29T10:48:11;5.10;;;3.03;;
18883;SDS011;9574;47.282;9.640;2023-07-29T10:50:39;6.75;;;3.17;;
18883;SDS011;9574;47.282;9.640;2023-07-29T10:53:06;5.10;;;3.03;;
18883;SDS011;9574;47.282;9.640;2023-07-29T10:55:34;4.15;;;3.10;;
18883;SDS011;9574;47.282;9.640;2023-07-29T10:58:06;8.23;;;3.28;;
18883;SDS011;9574;47.282;9.640;2023-07-29T11:00:43;4.93;;;3.03;;
18883;SDS011;9574;47.282;9.640;2023-07-29T11:03:12;4.03;;;2.88;;
18883;SDS011;9574;47.282;9.640;2023-07-29T11:05:44;4.38;;;3.22;;
18883;SDS011;9574;47.282;9.640;2023-07-29T11:08:20;3.65;;;2.50;;
18883;SDS011;9574;47.282;9.640;2023-07-29T11:10:58;4.47;;;3.30;;
18883;SDS011;9574;47.282;9.640;2023-07-29T11:13:33;4.28;;;3.25;;
18883;SDS011;9574;47.282;9.640;2023-07-29T11:16:01;4.90;;;3.10;;
18883;SDS011;9574;47.282;9.640;2023-07-29T11:18:31;4.10;;;2.92;;
18883;SDS011;9574;47.282;9.640;2023-07-29T11:20:59;4.78;;;3.38;;
18883;SDS011;9574;47.282;9.640;2023-07-29T11:23:28;6.18;;;3.08;;
18883;SDS011;9574;47.282;9.640;2023-07-29T11:25:59;4.45;;;2.97;;
18883;SDS011;9574;47.282;9.640;2023-07-29T11:28:26;3.58;;;2.90;;
18883;SDS011;9574;47.282;9.640;2023-07-29T11:30:54;3.38;;;2.50;;
18883;SDS011;9574;47.282;9.640;2023-07-29T11:33:22;4.70;;;3.40;;
18883;SDS011;9574;47.282;9.640;2023-07-29T11:35:51;4.15;;;2.92;;
18883;SDS011;9574;47.282;9.640;2023-07-29T11:38:19;4.28;;;2.90;;
18883;SDS011;9574;47.282;9.640;2023-07-29T11:40:54;5.45;;;3.40;;
18883;SDS011;9574;47.282;9.640;2023-07-29T11:43:22;4.80;;;3.55;;
18883;SDS011;9574;47.282;9.640;2023-07-29T11:45:49;3.92;;;3.15;;
18883;SDS011;9574;47.282;9.640;2023-07-29T11:48:17;4.95;;;2.85;;
18883;SDS011;9574;47.282;9.640;2023-07-29T11:50:44;4.22;;;3.40;;
18883;SDS011;9574;47.282;9.640;2023-07-29T11:53:13;4.00;;;3.35;;
18883;SDS011;9574;47.282;9.640;2023-07-29T11:55:40;3.40;;;3.00;;
18883;SDS011;9574;47.282;9.640;2023-07-29T11:58:07;3.72;;;2.85;;
18883;SDS011;9574;47.282;9.640;2023-07-29T12:00:40;4.35;;;2.92;;
18883;SDS011;9574;47.282;9.640;2023-07-29T12:03:07;3.88;;;2.95;;
18883;SDS011;9574;47.282;9.640;2023-07-29T12:05:35;5.30;;;3.20;;
18883;SDS011;9574;47.282;9.640;2023-07-29T12:08:03;6.70;;;3.28;;
18883;SDS011;9574;47.282;9.640;2023-07-29T12:10:32;4.45;;;3.28;;
18883;SDS011;9574;47.282;9.640;2023-07-29T12:13:00;5.07;;;3.25;;
18883;SDS011;9574;47.282;9.640;2023-07-29T12:15:29;5.13;;;3.05;;
18883;SDS011;9574;47.282;9.640;2023-07-29T12:17:57;5.38;;;3.00;;
18883;SDS011;9574;47.282;9.640;2023-07-29T12:20:25;4.63;;;3.40;;
18883;SDS011;9574;47.282;9.640;2023-07-29T12:22:53;4.05;;;3.20;;
18883;SDS011;9574;47.282;9.640;2023-07-29T12:25:21;4.75;;;3.30;;
18883;SDS011;9574;47.282;9.640;2023-07-29T12:27:49;4.97;;;3.22;;
18883;SDS011;9574;47.282;9.640;2023-07-29T12:30:19;4.55;;;2.80;;
18883;SDS011;9574;47.282;9.640;2023-07-29T12:32:47;3.05;;;2.65;;
18883;SDS011;9574;47.282;9.640;2023-07-29T12:35:14;4.47;;;3.50;;
18883;SDS011;9574;47.282;9.640;2023-07-29T12:37:41;4.78;;;2.83;;
18883;SDS011;9574;47.282;9.640;2023-07-29T12:40:19;8.40;;;3.10;;
18883;SDS011;9574;47.282;9.640;2023-07-29T12:42:49;5.75;;;3.55;;
18883;SDS011;9574;47.282;9.640;2023-07-29T12:45:17;5.35;;;3.65;;
18883;SDS011;9574;47.282;9.640;2023-07-29T12:47:44;6.60;;;3.88;;
18883;SDS011;9574;47.282;9.640;2023-07-29T12:50:11;4.65;;;3.58;;
18883;SDS011;9574;47.282;9.640;2023-07-29T12:52:38;5.90;;;3.55;;
18883;SDS011;9574;47.282;9.640;2023-07-29T12:55:05;4.50;;;3.58;;
18883;SDS011;9574;47.282;9.640;2023-07-29T12:57:38;6.30;;;3.85;;
18883;SDS011;9574;47.282;9.640;2023-07-29T13:00:08;7.57;;;4.18;;
18883;SDS011;9574;47.282;9.640;2023-07-29T13:02:36;9.02;;;4.65;;
18883;SDS011;9574;47.282;9.640;2023-07-29T13:05:03;5.30;;;2.08;;
18883;SDS011;9574;47.282;9.640;2023-07-29T13:07:31;4.80;;;2.75;;
18883;SDS011;9574;47.282;9.640;2023-07-29T13:09:58;4.20;;;2.00;;
18883;SDS011;9574;47.282;9.640;2023-07-29T13:12:25;3.40;;;1.85;;
18883;SDS011;9574;47.282;9.640;2023-07-29T13:14:52;4.55;;;1.90;;
18883;SDS011;9574;47.282;9.640;2023-07-29T13:17:20;4.82;;;2.20;;
18883;SDS011;9574;47.282;9.640;2023-07-29T13:19:48;2.33;;;1.75;;
18883;SDS011;9574;47.282;9.640;2023-07-29T13:22:15;2.13;;;1.55;;
18883;SDS011;9574;47.282;9.640;2023-07-29T13:24:42;2.95;;;1.58;;
18883;SDS011;9574;47.282;9.640;2023-07-29T13:27:09;3.45;;;1.50;;
18883;SDS011;9574;47.282;9.640;2023-07-29T13:29:36;1.77;;;1.30;;
18883;SDS011;9574;47.282;9.640;2023-07-29T13:32:03;1.73;;;1.02;;
18883;SDS011;9574;47.282;9.640;2023-07-29T13:34:32;2.28;;;0.95;;
18883;SDS011;9574;47.282;9.640;2023-07-29T13:36:59;1.85;;;1.02;;
18883;SDS011;9574;47.282;9.640;2023-07-29T13:39:26;1.48;;;1.20;;
18883;SDS011;9574;47.282;9.640;2023-07-29T13:41:53;1.83;;;1.17;;
18883;SDS011;9574;47.282;9.640;2023-07-29T13:44:20;1.70;;;1.13;;
18883;SDS011;9574;47.282;9.640;2023-07-29T13:46:47;1.77;;;1.33;;
18883;SDS011;9574;47.282;9.640;2023-07-29T13:49:14;1.63;;;1.00;;
18883;SDS011;9574;47.282;9.640;2023-07-29T13:51:42;2.67;;;1.30;;
18883;SDS011;9574;47.282;9.640;2023-07-29T13:54:09;3.42;;;1.02;;
18883;SDS011;9574;47.282;9.640;2023-07-29T13:56:36;1.98;;;1.17;;
18883;SDS011;9574;47.282;9.640;2023-07-29T13:59:03;6.35;;;1.42;;
18883;SDS011;9574;47.282;9.640;2023-07-29T14:01:30;3.22;;;1.35;;
18883;SDS011;9574;47.282;9.640;2023-07-29T14:03:57;3.05;;;1.65;;
18883;SDS011;9574;47.282;9.640;2023-07-29T14:06:24;3.78;;;1.85;;
18883;SDS011;9574;47.282;9.640;2023-07-29T14:08:52;4.68;;;2.08;;
18883;SDS011;9574;47.282;9.640;2023-07-29T14:11:19;3.83;;;2.72;;
18883;SDS011;9574;47.282;9.640;2023-07-29T14:13:46;6.28;;;3.05;;
18883;SDS011;9574;47.282;9.640;2023-07-29T14:16:13;4.15;;;2.42;;
18883;SDS011;9574;47.282;9.640;2023-07-29T14:18:40;3.70;;;2.38;;
18883;SDS011;9574;47.282;9.640;2023-07-29T14:21:07;5.50;;;2.63;;
18883;SDS011;9574;47.282;9.640;2023-07-29T14:23:34;5.03;;;2.33;;
18883;SDS011;9574;47.282;9.640;2023-07-29T14:26:02;3.00;;;2.00;;
18883;SDS011;9574;47.282;9.640;2023-07-29T14:28:29;2.63;;;2.17;;
18883;SDS011;9574;47.282;9.640;2023-07-29T14:30:56;4.35;;;1.83;;
18883;SDS011;9574;47.282;9.640;2023-07-29T14:33:23;3.47;;;1.90;;
18883;SDS011;9574;47.282;9.640;2023-07-29T14:35:51;2.85;;;1.60;;
18883;SDS011;9574;47.282;9.640;2023-07-29T14:38:18;2.83;;;1.70;;
18883;SDS011;9574;47.282;9.640;2023-07-29T14:40:47;3.13;;;1.77;;
18883;SDS011;9574;47.282;9.640;2023-07-29T14:43:17;2.20;;;1.70;;
18883;SDS011;9574;47.282;9.640;2023-07-29T14:45:44;3.97;;;1.73;;
18883;SDS011;9574;47.282;9.640;2023-07-29T14:48:11;2.10;;;1.80;;
18883;SDS011;9574;47.282;9.640;2023-07-29T14:50:38;2.58;;;1.45;;
18883;SDS011;9574;47.282;9.640;2023-07-29T14:53:05;4.15;;;1.63;;
18883;SDS011;9574;47.282;9.640;2023-07-29T14:55:32;2.00;;;1.48;;
18883;SDS011;9574;47.282;9.640;2023-07-29T14:57:59;3.63;;;1.63;;
18883;SDS011;9574;47.282;9.640;2023-07-29T15:00:28;2.58;;;1.60;;
18883;SDS011;9574;47.282;9.640;2023-07-29T15:02:55;1.70;;;1.48;;
18883;SDS011;9574;47.282;9.640;2023-07-29T15:05:22;2.95;;;1.70;;
18883;SDS011;9574;47.282;9.640;2023-07-29T15:07:49;2.17;;;1.70;;